Time;durP1;ratioP1;P1;durP2;ratioP2;P2;SDS_P1;SDS_P2;PMS_P1;PMS_P2;Temp;Humidity;BMP_temperature;BMP_pressure;BME280_temperature;BME280_humidity;BME280_pressure;Samples;Min_cycle;Max_cycle;Signal;HPM_P1;HPM_P2
2022/10/28 00:01:04;;;;;;;2.72;1.90;;;22.30;59.10;;;;;;5051689;28;20060;-48
2022/10/28 00:03:30;;;;;;;2.75;2.00;;;22.30;59.10;;;;;;5053980;28;20103;-49
2022/10/28 00:06:04;;;;;;;6.55;2.10;;;22.20;59.10;;;;;;5050040;28;20515;-48
2022/10/28 00:08:30;;;;;;;4.22;2.00;;;22.20;59.00;;;;;;5051000;28;20060;-49
2022/10/28 00:11:07;;;;;;;3.40;2.00;;;22.30;59.10;;;;;;5051335;28;20487;-49
2022/10/28 00:13:34;;;;;;;4.40;2.05;;;22.20;58.90;;;;;;5050800;28;20021;-45
2022/10/28 00:16:27;;;;;;;2.83;1.83;;;22.20;59.00;;;;;;5052362;28;20763;-49
2022/10/28 00:18:53;;;;;;;3.83;2.08;;;22.20;58.90;;;;;;5046924;28;20456;-47
2022/10/28 00:21:22;;;;;;;4.65;1.90;;;22.20;59.00;;;;;;5050131;28;20036;-46
2022/10/28 00:23:48;;;;;;;3.78;1.90;;;22.30;59.10;;;;;;5050525;28;20025;-46
2022/10/28 00:26:18;;;;;;;4.95;1.95;;;22.20;59.10;;;;;;5048954;28;20036;-46
2022/10/28 00:29:12;;;;;;;4.57;2.20;;;22.20;59.10;;;;;;5050435;28;20036;-45
2022/10/28 00:31:39;;;;;;;4.30;2.23;;;22.20;59.10;;;;;;5046783;28;20037;-49
2022/10/28 00:34:09;;;;;;;3.53;2.00;;;22.20;59.10;;;;;;5049719;28;20044;-47
2022/10/28 00:36:36;;;;;;;5.75;2.17;;;22.20;59.10;;;;;;5049587;28;20056;-49
2022/10/28 00:39:10;;;;;;;3.08;2.00;;;22.20;59.10;;;;;;5050243;28;20021;-48
2022/10/28 00:41:38;;;;;;;3.60;2.03;;;22.20;59.10;;;;;;5049674;28;20044;-48
2022/10/28 00:44:42;;;;;;;4.70;2.38;;;22.20;59.10;;;;;;5051403;28;20467;-48
2022/10/28 00:47:20;;;;;;;4.57;2.10;;;22.20;59.10;;;;;;5049483;28;20419;-49
2022/10/28 00:49:47;;;;;;;4.30;2.30;;;22.20;59.20;;;;;;5052684;28;20036;-47
2022/10/28 00:52:20;;;;;;;4.15;2.15;;;22.20;59.20;;;;;;5050664;28;20052;-46
2022/10/28 00:54:48;;;;;;;2.78;1.73;;;22.20;59.20;;;;;;5050629;28;20408;-45
2022/10/28 00:57:18;;;;;;;3.53;2.03;;;22.10;59.20;;;;;;5050505;28;20048;-46
2022/10/28 00:59:48;;;;;;;3.92;2.20;;;22.10;59.20;;;;;;5046915;28;20413;-46
2022/10/28 01:02:14;;;;;;;3.15;2.10;;;22.10;59.20;;;;;;5047590;28;20041;-50
2022/10/28 01:04:41;;;;;;;4.65;2.45;;;22.10;59.20;;;;;;5046160;28;20086;-47
2022/10/28 01:07:08;;;;;;;3.60;2.00;;;22.20;59.30;;;;;;5050946;28;20064;-52
2022/10/28 01:09:33;;;;;;;3.63;2.38;;;22.10;59.20;;;;;;5048835;28;20467;-46
2022/10/28 01:12:18;;;;;;;2.83;1.98;;;22.10;59.20;;;;;;5049786;28;20036;-49
2022/10/28 01:14:59;;;;;;;2.85;1.88;;;22.10;59.20;;;;;;5048919;28;20033;-48
2022/10/28 01:17:44;;;;;;;2.92;1.80;;;22.10;59.20;;;;;;5049325;28;20554;-48
2022/10/28 01:20:09;;;;;;;5.93;2.53;;;22.10;59.20;;;;;;5049733;28;20043;-47
2022/10/28 01:22:41;;;;;;;5.95;2.17;;;22.10;59.20;;;;;;5050260;28;20033;-48
2022/10/28 01:25:20;;;;;;;4.03;2.15;;;22.10;59.20;;;;;;5049288;28;20409;-48
2022/10/28 01:28:11;;;;;;;4.28;2.20;;;22.10;59.20;;;;;;5048848;28;20399;-49
2022/10/28 01:31:13;;;;;;;3.42;2.15;;;22.10;59.20;;;;;;5048978;28;20040;-47
2022/10/28 01:34:06;;;;;;;4.85;2.50;;;22.10;59.20;;;;;;5049331;28;20036;-46
2022/10/28 01:36:35;;;;;;;4.85;2.40;;;22.10;59.30;;;;;;5048298;28;20094;-47
2022/10/28 01:39:15;;;;;;;5.40;2.10;;;22.10;59.30;;;;;;5048805;28;20042;-46
2022/10/28 01:41:57;;;;;;;4.82;2.15;;;22.10;59.30;;;;;;5048340;28;20033;-48
2022/10/28 01:44:26;;;;;;;4.20;2.75;;;22.00;59.20;;;;;;5046354;28;20032;-48
2022/10/28 01:46:58;;;;;;;4.68;2.15;;;22.10;59.30;;;;;;5047876;28;20044;-47
2022/10/28 01:49:47;;;;;;;5.28;2.22;;;22.00;59.30;;;;;;5051710;28;20039;-46
2022/10/28 01:52:17;;;;;;;2.92;2.00;;;22.10;59.30;;;;;;5050185;28;20033;-49
2022/10/28 01:54:50;;;;;;;5.38;2.40;;;22.10;59.40;;;;;;5050578;28;20452;-48
2022/10/28 01:57:18;;;;;;;4.03;1.95;;;22.00;59.30;;;;;;5049151;28;20047;-52
2022/10/28 01:59:46;;;;;;;4.45;2.35;;;22.10;59.40;;;;;;5047397;28;20086;-52
2022/10/28 02:02:14;;;;;;;3.40;2.17;;;22.00;59.40;;;;;;5050540;28;20037;-53
2022/10/28 02:04:40;;;;;;;3.42;2.30;;;22.00;59.30;;;;;;5051271;28;20028;-52
2022/10/28 02:07:06;;;;;;;4.47;2.22;;;22.00;59.40;;;;;;5049567;28;20059;-49
2022/10/28 02:09:37;;;;;;;3.95;2.28;;;22.00;59.30;;;;;;5049224;28;20436;-46
2022/10/28 02:12:21;;;;;;;3.72;2.17;;;22.00;59.40;;;;;;5047737;28;20449;-48
2022/10/28 02:15:08;;;;;;;5.73;2.33;;;22.00;59.30;;;;;;5048263;28;20079;-48
2022/10/28 02:17:45;;;;;;;5.35;2.33;;;22.10;59.40;;;;;;5047666;28;20333;-46
2022/10/28 02:20:16;;;;;;;4.07;2.42;;;22.00;59.40;;;;;;5048526;28;20459;-46
2022/10/28 02:22:50;;;;;;;4.30;2.10;;;22.00;59.40;;;;;;5048863;28;20025;-45
2022/10/28 02:25:23;;;;;;;3.65;2.00;;;22.00;59.40;;;;;;5048720;28;20479;-47
2022/10/28 02:28:00;;;;;;;3.97;2.38;;;22.00;59.40;;;;;;5049597;28;20499;-45
2022/10/28 02:30:37;;;;;;;5.38;2.67;;;22.00;59.40;;;;;;5049037;28;20055;-45
2022/10/28 02:33:09;;;;;;;3.78;2.25;;;22.00;59.40;;;;;;5044261;28;20456;-48
2022/10/28 02:35:46;;;;;;;3.00;1.98;;;22.00;59.40;;;;;;5048231;28;20043;-48
2022/10/28 02:38:20;;;;;;;4.35;2.55;;;22.00;59.40;;;;;;5047760;28;20028;-47
2022/10/28 02:40:51;;;;;;;5.95;2.20;;;22.00;59.40;;;;;;5046163;28;20029;-45
2022/10/28 02:43:19;;;;;;;3.75;2.25;;;22.00;59.50;;;;;;5047288;28;20028;-47
2022/10/28 02:45:49;;;;;;;4.50;2.53;;;22.00;59.50;;;;;;5048543;28;20037;-46
2022/10/28 02:48:32;;;;;;;3.95;2.22;;;22.00;59.50;;;;;;5050046;28;20060;-48
2022/10/28 02:51:08;;;;;;;4.20;1.90;;;22.00;59.50;;;;;;5047910;28;20021;-48
2022/10/28 02:53:45;;;;;;;4.47;2.42;;;22.00;59.50;;;;;;5047860;28;20055;-48
2022/10/28 02:56:14;;;;;;;4.10;2.40;;;22.00;59.50;;;;;;5048813;28;20039;-50
2022/10/28 02:58:40;;;;;;;3.90;2.47;;;22.00;59.50;;;;;;5045589;28;20029;-47
2022/10/28 03:01:07;;;;;;;4.65;2.40;;;22.00;59.50;;;;;;5051253;28;20029;-48
2022/10/28 03:03:32;;;;;;;3.03;2.00;;;22.00;59.60;;;;;;5051361;28;20021;-47
2022/10/28 03:05:58;;;;;;;5.35;2.60;;;21.90;59.50;;;;;;5052149;28;20047;-50
2022/10/28 03:08:24;;;;;;;3.22;2.22;;;21.90;59.50;;;;;;5052075;28;20037;-51
2022/10/28 03:10:50;;;;;;;4.18;2.05;;;22.00;59.60;;;;;;5052593;28;20367;-49
2022/10/28 03:13:16;;;;;;;3.78;2.05;;;22.00;59.60;;;;;;5051501;28;20067;-49
2022/10/28 03:15:42;;;;;;;5.93;2.40;;;21.90;59.60;;;;;;5046359;28;20048;-47
2022/10/28 03:18:08;;;;;;;3.97;2.10;;;21.90;59.60;;;;;;5052636;28;21290;-53
2022/10/28 03:20:33;;;;;;;3.15;2.15;;;22.00;59.70;;;;;;5052493;28;20060;-46
2022/10/28 03:22:59;;;;;;;3.67;2.17;;;21.90;59.60;;;;;;5052915;28;20086;-48
2022/10/28 03:25:25;;;;;;;4.32;2.08;;;22.00;59.60;;;;;;5053126;28;20048;-46
2022/10/28 03:27:51;;;;;;;3.13;2.05;;;22.00;59.60;;;;;;5053002;28;20458;-45
2022/10/28 03:30:17;;;;;;;3.50;2.30;;;22.00;59.60;;;;;;5051898;28;20034;-49
2022/10/28 03:32:43;;;;;;;2.45;1.63;;;22.00;59.60;;;;;;5051183;28;20025;-45
2022/10/28 03:35:09;;;;;;;5.30;2.40;;;21.90;59.50;;;;;;5052260;28;20410;-48
2022/10/28 03:37:35;;;;;;;4.32;2.30;;;21.90;59.50;;;;;;5052014;28;20108;-47
2022/10/28 03:40:06;;;;;;;4.57;2.42;;;22.00;59.50;;;;;;5050507;28;21674;-47
2022/10/28 03:42:33;;;;;;;2.85;1.83;;;22.00;59.50;;;;;;5049548;28;20075;-46
2022/10/28 03:44:59;;;;;;;6.20;2.70;;;21.90;59.40;;;;;;5051993;28;20416;-50
2022/10/28 03:47:24;;;;;;;2.97;1.83;;;21.90;59.40;;;;;;5054077;28;20102;-48
2022/10/28 03:49:50;;;;;;;5.05;2.17;;;22.00;59.40;;;;;;5053357;28;20115;-48
2022/10/28 03:52:16;;;;;;;4.55;2.05;;;21.90;59.30;;;;;;5053894;28;20501;-46
2022/10/28 03:54:42;;;;;;;2.78;1.83;;;21.90;59.30;;;;;;5051999;28;20048;-47
2022/10/28 03:57:08;;;;;;;4.93;2.03;;;21.90;59.30;;;;;;5052268;28;20033;-48
2022/10/28 03:59:33;;;;;;;4.13;2.40;;;21.90;59.20;;;;;;5049929;28;20049;-47
2022/10/28 04:01:59;;;;;;;4.85;2.53;;;21.90;59.20;;;;;;5049698;28;20037;-48
2022/10/28 04:04:25;;;;;;;3.70;2.53;;;21.90;59.20;;;;;;5053345;28;20437;-52
2022/10/28 04:06:51;;;;;;;4.13;2.20;;;21.90;59.20;;;;;;5051370;28;20048;-52
2022/10/28 04:09:16;;;;;;;3.85;2.10;;;21.90;59.20;;;;;;5051132;28;20039;-51
2022/10/28 04:11:42;;;;;;;4.30;2.17;;;21.90;59.20;;;;;;5048896;28;20079;-54
2022/10/28 04:14:08;;;;;;;5.72;2.20;;;21.90;59.10;;;;;;5049989;28;20082;-47
2022/10/28 04:16:34;;;;;;;6.28;2.50;;;21.90;59.10;;;;;;5049579;28;20045;-47
2022/10/28 04:19:00;;;;;;;4.13;2.25;;;21.90;59.10;;;;;;5050302;28;20043;-47
2022/10/28 04:21:25;;;;;;;3.05;2.00;;;21.90;59.10;;;;;;5051115;28;20305;-46
2022/10/28 04:23:51;;;;;;;4.03;2.30;;;21.90;59.10;;;;;;5051434;28;20021;-46
2022/10/28 04:26:17;;;;;;;3.40;1.92;;;21.90;59.10;;;;;;5051038;28;20037;-46
2022/10/28 04:28:43;;;;;;;3.53;2.15;;;21.90;59.10;;;;;;5052811;28;20036;-46
2022/10/28 04:31:11;;;;;;;3.60;2.20;;;21.90;59.10;;;;;;5051203;28;20029;-46
2022/10/28 04:33:37;;;;;;;4.95;2.20;;;21.90;59.10;;;;;;5051182;28;20029;-47
2022/10/28 04:36:03;;;;;;;3.05;1.70;;;21.90;59.00;;;;;;5049473;28;20149;-49
2022/10/28 04:38:28;;;;;;;3.58;1.92;;;21.90;59.00;;;;;;5050045;28;20108;-47
2022/10/28 04:40:54;;;;;;;4.93;2.17;;;21.90;59.00;;;;;;5050225;28;20025;-49
2022/10/28 04:43:20;;;;;;;4.05;2.28;;;21.90;59.00;;;;;;5048308;28;20087;-46
2022/10/28 04:45:46;;;;;;;3.35;2.00;;;21.90;59.00;;;;;;5050576;28;20029;-46
2022/10/28 04:48:12;;;;;;;4.75;2.05;;;21.90;59.00;;;;;;5053774;28;20032;-46
2022/10/28 04:50:37;;;;;;;5.47;2.20;;;21.90;59.00;;;;;;5050670;28;20079;-47
2022/10/28 04:53:10;;;;;;;5.43;2.60;;;21.90;59.00;;;;;;5051836;28;20037;-46
2022/10/28 04:55:35;;;;;;;2.53;1.80;;;21.90;59.00;;;;;;5050036;28;20033;-46
2022/10/28 04:58:01;;;;;;;3.58;2.05;;;21.90;58.90;;;;;;5049819;28;20086;-46
2022/10/28 05:00:28;;;;;;;3.78;2.35;;;21.90;58.90;;;;;;5049172;28;20033;-51
2022/10/28 05:02:55;;;;;;;4.40;2.72;;;21.80;58.90;;;;;;5049257;28;20025;-46
2022/10/28 05:05:20;;;;;;;3.47;2.10;;;21.90;58.90;;;;;;5050179;28;20033;-51
2022/10/28 05:07:46;;;;;;;4.43;2.10;;;21.90;59.00;;;;;;5049006;28;20094;-47
2022/10/28 05:10:16;;;;;;;3.95;2.10;;;21.90;58.90;;;;;;5047888;28;20032;-49
2022/10/28 05:12:43;;;;;;;4.78;2.25;;;21.80;58.90;;;;;;5048664;28;20040;-45
2022/10/28 05:15:11;;;;;;;5.88;2.35;;;21.90;58.90;;;;;;5049294;28;20122;-47
2022/10/28 05:17:44;;;;;;;4.35;2.03;;;21.80;58.90;;;;;;5048474;28;20036;-47
2022/10/28 05:20:11;;;;;;;4.20;2.35;;;21.90;58.90;;;;;;5050595;28;20033;-46
2022/10/28 05:22:37;;;;;;;3.80;1.85;;;21.80;58.80;;;;;;5048430;28;20029;-47
2022/10/28 05:25:03;;;;;;;4.72;2.15;;;21.80;58.90;;;;;;5049416;28;20360;-49
2022/10/28 05:27:29;;;;;;;4.40;2.70;;;21.80;58.80;;;;;;5051889;28;20116;-45
2022/10/28 05:29:55;;;;;;;3.88;2.10;;;21.80;58.80;;;;;;5051193;28;20524;-48
2022/10/28 05:32:21;;;;;;;4.30;1.90;;;21.80;58.80;;;;;;5048109;28;20029;-48
2022/10/28 05:34:47;;;;;;;3.90;2.20;;;21.80;58.80;;;;;;5048452;28;20029;-48
2022/10/28 05:37:12;;;;;;;3.30;2.13;;;21.80;58.80;;;;;;5046930;28;20032;-48
2022/10/28 05:39:38;;;;;;;4.38;1.90;;;21.80;58.80;;;;;;5049074;28;20056;-48
2022/10/28 05:42:04;;;;;;;2.90;2.15;;;21.80;58.90;;;;;;5048436;28;20033;-51
2022/10/28 05:44:30;;;;;;;5.97;2.00;;;21.80;58.80;;;;;;5047683;28;20033;-46
2022/10/28 05:46:55;;;;;;;6.22;2.50;;;21.80;58.80;;;;;;5045246;28;20037;-50
2022/10/28 05:49:22;;;;;;;3.72;1.83;;;21.80;58.80;;;;;;5048905;28;20444;-48
2022/10/28 05:51:47;;;;;;;4.20;2.53;;;21.80;58.80;;;;;;5052991;28;20025;-48
2022/10/28 05:54:13;;;;;;;3.10;1.83;;;21.80;58.80;;;;;;5052450;28;20365;-47
2022/10/28 05:56:39;;;;;;;3.58;1.80;;;21.80;58.80;;;;;;5052781;28;20059;-46
2022/10/28 05:59:05;;;;;;;2.95;1.88;;;21.80;58.80;;;;;;5052667;28;20044;-47
2022/10/28 06:01:30;;;;;;;5.53;2.40;;;21.80;58.80;;;;;;5049297;28;20029;-46
2022/10/28 06:03:56;;;;;;;4.03;2.38;;;21.80;58.80;;;;;;5051897;28;20039;-46
2022/10/28 06:06:22;;;;;;;4.22;1.98;;;21.80;58.70;;;;;;5054338;28;20190;-49
2022/10/28 06:08:48;;;;;;;3.80;2.15;;;21.70;58.70;;;;;;5051039;28;20349;-52
2022/10/28 06:11:13;;;;;;;3.28;2.08;;;21.80;58.70;;;;;;5047922;28;20060;-49
2022/10/28 06:13:39;;;;;;;4.03;2.05;;;21.80;58.70;;;;;;5048747;28;20032;-50
2022/10/28 06:16:05;;;;;;;3.72;2.30;;;21.80;58.80;;;;;;5048824;28;20106;-51
2022/10/28 06:18:31;;;;;;;3.75;1.85;;;21.80;58.70;;;;;;5048878;28;20641;-53
2022/10/28 06:20:58;;;;;;;3.80;1.90;;;21.70;58.70;;;;;;5049490;28;20029;-49
2022/10/28 06:23:25;;;;;;;4.88;2.17;;;21.80;58.70;;;;;;5048252;28;20021;-46
2022/10/28 06:25:59;;;;;;;5.55;2.35;;;21.70;58.70;;;;;;5050501;28;20115;-47
2022/10/28 06:28:25;;;;;;;4.75;2.30;;;21.70;58.70;;;;;;5049019;28;20048;-46
2022/10/28 06:30:51;;;;;;;3.00;2.30;;;21.70;58.70;;;;;;5048576;28;20028;-47
2022/10/28 06:33:17;;;;;;;5.78;2.40;;;21.70;58.70;;;;;;5049140;28;20040;-46
2022/10/28 06:35:43;;;;;;;4.95;2.25;;;21.70;58.70;;;;;;5051115;28;20372;-47
2022/10/28 06:38:09;;;;;;;7.35;2.60;;;21.70;58.80;;;;;;5048217;28;20412;-46
2022/10/28 06:40:34;;;;;;;5.85;2.38;;;21.70;58.70;;;;;;5049686;28;20040;-48
2022/10/28 06:43:04;;;;;;;5.22;2.60;;;21.70;58.70;;;;;;5049456;28;20491;-52
2022/10/28 06:45:32;;;;;;;5.82;2.17;;;21.70;58.70;;;;;;5048278;28;20099;-46
2022/10/28 06:48:00;;;;;;;7.85;2.78;;;21.70;58.60;;;;;;5047068;28;20072;-45
2022/10/28 06:50:27;;;;;;;4.10;2.38;;;21.70;58.60;;;;;;5049823;28;20408;-47
2022/10/28 06:52:56;;;;;;;7.45;2.80;;;21.70;58.70;;;;;;5049006;28;20165;-48
2022/10/28 06:55:23;;;;;;;6.82;2.90;;;21.70;58.70;;;;;;5046405;28;20443;-46
2022/10/28 06:57:54;;;;;;;6.13;2.45;;;21.70;58.70;;;;;;5049784;28;20029;-47
2022/10/28 07:00:21;;;;;;;4.10;2.40;;;21.70;58.80;;;;;;5049472;28;20025;-47
2022/10/28 07:02:52;;;;;;;4.88;2.58;;;21.70;58.80;;;;;;5049125;28;20344;-45
2022/10/28 07:05:18;;;;;;;4.97;2.80;;;21.70;58.80;;;;;;5045898;28;20113;-49
2022/10/28 07:07:44;;;;;;;6.38;3.05;;;21.70;58.90;;;;;;5046537;28;20048;-47
2022/10/28 07:10:10;;;;;;;5.40;2.92;;;21.70;59.00;;;;;;5044985;28;20493;-48
2022/10/28 07:12:36;;;;;;;5.63;2.90;;;21.70;59.00;;;;;;5046026;28;20025;-47
2022/10/28 07:15:04;;;;;;;6.38;2.92;;;21.70;59.10;;;;;;5049128;28;20108;-47
2022/10/28 07:17:40;;;;;;;7.05;4.05;;;21.70;59.20;;;;;;5051485;28;20024;-47
2022/10/28 07:20:07;;;;;;;9.80;4.50;;;21.70;59.20;;;;;;5052573;28;20064;-48
2022/10/28 07:22:33;;;;;;;11.60;4.43;;;21.70;59.30;;;;;;5055120;28;20060;-49
2022/10/28 07:25:02;;;;;;;10.05;4.35;;;21.70;59.30;;;;;;5053917;28;20452;-49
2022/10/28 07:27:29;;;;;;;11.43;4.72;;;21.70;59.30;;;;;;5047721;28;20044;-48
2022/10/28 07:29:54;;;;;;;12.18;3.88;;;21.70;59.30;;;;;;5048125;28;20341;-47
2022/10/28 07:32:20;;;;;;;10.43;4.68;;;21.70;59.30;;;;;;5052814;28;20029;-50
2022/10/28 07:34:46;;;;;;;9.65;4.30;;;21.80;59.40;;;;;;5045859;28;20029;-47
2022/10/28 07:37:12;;;;;;;11.38;3.97;;;21.70;59.20;;;;;;5047605;28;20036;-49
2022/10/28 07:39:38;;;;;;;9.38;4.30;;;21.70;59.20;;;;;;5048930;28;20017;-49
2022/10/28 07:42:04;;;;;;;8.52;3.63;;;21.80;59.20;;;;;;5047470;28;20112;-46
2022/10/28 07:44:29;;;;;;;10.20;3.75;;;21.80;59.20;;;;;;5047779;28;20029;-47
2022/10/28 07:46:55;;;;;;;7.22;3.67;;;21.70;59.20;;;;;;5050394;28;20041;-47
2022/10/28 07:49:21;;;;;;;11.30;3.50;;;21.80;59.20;;;;;;5051110;28;20028;-50
2022/10/28 07:51:50;;;;;;;9.20;3.90;;;21.80;59.20;;;;;;5051651;28;20024;-52
2022/10/28 07:54:17;;;;;;;13.15;3.70;;;21.80;59.20;;;;;;5053334;28;20021;-48
2022/10/28 07:56:43;;;;;;;8.48;3.58;;;21.80;59.30;;;;;;5049409;28;20045;-46
2022/10/28 07:59:09;;;;;;;9.25;3.92;;;21.80;59.40;;;;;;5045248;28;20029;-46
2022/10/28 08:01:35;;;;;;;7.85;3.55;;;21.80;59.30;;;;;;5048418;28;20033;-46
2022/10/28 08:04:01;;;;;;;9.23;3.35;;;21.80;59.20;;;;;;5029401;28;20029;-47
2022/10/28 08:06:41;;;;;;;6.32;3.40;;;21.80;59.10;;;;;;5048346;28;20452;-49
2022/10/28 08:09:16;;;;;;;9.10;3.63;;;21.80;59.00;;;;;;5048683;28;20440;-47
2022/10/28 08:11:44;;;;;;;6.38;2.90;;;21.80;58.90;;;;;;5046971;28;20033;-51
2022/10/28 08:14:10;;;;;;;6.55;3.22;;;21.80;58.90;;;;;;5046075;28;20714;-53
2022/10/28 08:16:36;;;;;;;6.82;2.92;;;21.80;58.80;;;;;;5047746;28;20047;-53
2022/10/28 08:19:01;;;;;;;5.90;2.65;;;21.80;58.80;;;;;;5045118;28;20033;-52
2022/10/28 08:21:27;;;;;;;7.13;3.33;;;21.80;58.70;;;;;;5045163;28;20067;-49
2022/10/28 08:23:54;;;;;;;6.38;3.05;;;21.80;58.70;;;;;;5042650;28;20064;-51
2022/10/28 08:26:20;;;;;;;8.80;3.42;;;21.90;58.80;;;;;;5045409;28;20073;-53
2022/10/28 08:28:45;;;;;;;8.32;3.55;;;21.80;58.70;;;;;;5047250;28;20078;-49
2022/10/28 08:31:11;;;;;;;11.48;3.17;;;21.80;58.70;;;;;;5052528;28;20028;-47
2022/10/28 08:33:41;;;;;;;6.53;2.80;;;21.90;58.80;;;;;;5048126;28;20431;-48
2022/10/28 08:36:12;;;;;;;5.10;2.75;;;21.90;58.70;;;;;;5049822;28;20029;-47
2022/10/28 08:38:38;;;;;;;6.10;3.08;;;21.90;58.70;;;;;;5051715;28;20460;-46
2022/10/28 08:41:04;;;;;;;6.25;3.35;;;21.90;58.60;;;;;;5056293;28;20047;-51
2022/10/28 08:43:51;;;;;;;5.00;2.60;;;21.90;58.60;;;;;;5056057;28;20112;-48
2022/10/28 08:46:27;;;;;;;7.22;3.03;;;21.90;58.50;;;;;;5055301;28;20092;-47
2022/10/28 08:48:53;;;;;;;6.55;2.78;;;21.90;58.50;;;;;;5055818;28;20025;-49
2022/10/28 08:51:33;;;;;;;6.45;2.88;;;21.90;58.50;;;;;;5056247;28;20411;-47
2022/10/28 08:54:09;;;;;;;7.82;3.20;;;21.90;58.50;;;;;;5056874;28;20036;-46
2022/10/28 08:56:44;;;;;;;8.63;3.47;;;21.90;58.50;;;;;;5054264;28;20025;-50
2022/10/28 08:59:30;;;;;;;7.00;2.75;;;21.90;58.40;;;;;;5050116;28;20037;-47
2022/10/28 09:01:59;;;;;;;5.22;2.80;;;21.90;58.40;;;;;;5040196;28;20036;-47
2022/10/28 09:04:38;;;;;;;4.95;2.65;;;21.90;58.50;;;;;;5054820;28;20101;-49
2022/10/28 09:07:09;;;;;;;4.07;2.40;;;22.00;58.80;;;;;;5049485;28;20059;-47
2022/10/28 09:09:34;;;;;;;6.97;2.83;;;22.00;58.50;;;;;;5055327;28;20025;-47
2022/10/28 09:12:00;;;;;;;5.03;2.50;;;22.00;58.60;;;;;;5054766;28;20466;-49
2022/10/28 09:14:48;;;;;;;4.03;2.40;;;21.90;58.50;;;;;;5056072;28;20036;-47
2022/10/28 09:17:14;;;;;;;7.85;3.00;;;21.90;58.50;;;;;;5051427;28;20400;-49
2022/10/28 09:19:47;;;;;;;6.65;2.70;;;22.00;58.60;;;;;;5041123;28;20087;-51
2022/10/28 09:22:31;;;;;;;4.78;2.63;;;21.90;58.50;;;;;;5053415;28;20116;-52
2022/10/28 09:25:03;;;;;;;4.68;2.45;;;22.00;58.60;;;;;;5055648;28;20032;-50
2022/10/28 09:28:11;;;;;;;4.80;2.45;;;22.00;58.60;;;;;;5054364;28;20128;-50
2022/10/28 09:30:57;;;;;;;5.55;2.53;;;22.00;58.60;;;;;;5055743;28;20025;-53
2022/10/28 09:33:46;;;;;;;5.55;2.67;;;22.00;58.60;;;;;;5049247;28;20086;-52
2022/10/28 09:36:28;;;;;;;5.78;2.47;;;22.00;58.70;;;;;;5046047;28;20032;-52
2022/10/28 09:38:56;;;;;;;5.28;2.80;;;22.00;58.90;;;;;;5047389;28;20108;-52
2022/10/28 09:41:26;;;;;;;6.38;2.78;;;22.00;59.10;;;;;;5048775;28;20036;-49
2022/10/28 09:43:56;;;;;;;6.63;2.78;;;22.00;59.20;;;;;;5035989;28;20041;-49
2022/10/28 09:46:27;;;;;;;7.60;3.38;;;22.00;59.30;;;;;;5047111;28;20506;-49
2022/10/28 09:48:57;;;;;;;5.85;2.78;;;22.10;59.50;;;;;;5044443;28;20364;-53
2022/10/28 09:52:03;;;;;;;6.70;2.40;;;22.10;59.50;;;;;;5051202;28;20029;-52
2022/10/28 09:54:35;;;;;;;5.95;2.50;;;22.10;59.50;;;;;;5020803;28;20057;-51
2022/10/28 09:57:02;;;;;;;4.75;2.78;;;22.10;59.60;;;;;;5053001;28;20126;-52
2022/10/28 09:59:28;;;;;;;5.38;3.22;;;22.10;59.60;;;;;;5049669;28;20056;-51
2022/10/28 10:01:54;;;;;;;5.95;2.58;;;22.10;59.60;;;;;;5044519;28;20034;-50
2022/10/28 10:04:23;;;;;;;5.32;2.53;;;22.20;59.70;;;;;;5051352;28;20044;-50
2022/10/28 10:06:53;;;;;;;6.10;2.97;;;22.20;59.80;;;;;;5046806;28;20052;-53
2022/10/28 10:09:27;;;;;;;6.78;2.72;;;22.20;59.80;;;;;;5044408;28;20029;-47
2022/10/28 10:12:03;;;;;;;6.45;2.72;;;22.20;60.00;;;;;;5041739;28;20029;-54
2022/10/28 10:14:37;;;;;;;4.47;2.40;;;22.30;60.10;;;;;;5047566;28;20032;-58
2022/10/28 10:17:09;;;;;;;8.67;3.23;;;22.30;60.10;;;;;;5046551;28;20110;-57
2022/10/28 10:20:01;;;;;;;6.90;3.28;;;22.30;60.40;;;;;;5050062;28;20288;-57
2022/10/28 10:22:30;;;;;;;5.95;3.38;;;22.30;60.50;;;;;;5048620;28;20040;-57
2022/10/28 10:24:56;;;;;;;4.47;2.65;;;22.40;60.60;;;;;;5048580;28;20029;-59
2022/10/28 10:27:24;;;;;;;5.60;2.90;;;22.40;60.50;;;;;;5046808;28;20037;-58
2022/10/28 10:29:52;;;;;;;7.57;3.08;;;22.50;60.50;;;;;;5045340;28;20314;-53
2022/10/28 10:32:24;;;;;;;5.30;2.60;;;22.60;60.20;;;;;;5049925;28;20110;-54
2022/10/28 10:35:00;;;;;;;5.10;2.50;;;22.70;60.00;;;;;;5049349;28;20032;-56
2022/10/28 10:37:28;;;;;;;7.65;2.88;;;22.90;59.70;;;;;;5048298;28;20043;-53
2022/10/28 10:40:05;;;;;;;6.47;2.70;;;23.00;59.40;;;;;;5046157;28;20428;-59
2022/10/28 10:42:32;;;;;;;4.93;2.40;;;23.10;59.10;;;;;;5046916;28;20040;-55
2022/10/28 10:45:21;;;;;;;5.85;2.55;;;23.20;58.80;;;;;;5048118;28;20025;-58
2022/10/28 10:47:47;;;;;;;8.07;2.95;;;23.30;58.50;;;;;;5047446;28;20092;-56
2022/10/28 10:50:29;;;;;;;6.93;2.38;;;23.40;58.30;;;;;;5049254;28;21801;-58
2022/10/28 10:53:00;;;;;;;8.38;2.67;;;23.50;58.00;;;;;;5046543;28;20041;-57
2022/10/28 10:56:02;;;;;;;6.35;2.50;;;23.60;57.80;;;;;;5048195;28;20448;-58
2022/10/28 10:58:35;;;;;;;5.65;2.70;;;23.70;57.50;;;;;;5033146;28;20033;-52
2022/10/28 11:01:04;;;;;;;6.88;2.50;;;23.80;57.30;;;;;;5047563;28;20542;-59
2022/10/28 11:03:37;;;;;;;4.95;2.60;;;23.80;57.10;;;;;;5045715;28;20357;-53
2022/10/28 11:06:06;;;;;;;6.40;2.45;;;24.00;56.90;;;;;;5049741;28;20029;-53
2022/10/28 11:08:38;;;;;;;6.10;2.67;;;24.00;56.60;;;;;;5045562;28;20044;-53
2022/10/28 11:11:12;;;;;;;4.57;2.42;;;24.10;56.40;;;;;;5054526;28;20044;-52
2022/10/28 11:13:39;;;;;;;5.00;2.30;;;24.10;56.00;;;;;;5054228;28;20036;-50
2022/10/28 11:16:16;;;;;;;5.32;2.67;;;24.20;55.90;;;;;;5045148;28;20057;-50
2022/10/28 11:18:45;;;;;;;4.30;2.17;;;24.30;55.70;;;;;;5045935;28;20355;-54
2022/10/28 11:21:36;;;;;;;4.10;2.20;;;24.30;55.50;;;;;;5055330;28;20029;-56
2022/10/28 11:24:34;;;;;;;6.35;2.80;;;24.30;55.20;;;;;;5038166;28;20049;-51
2022/10/28 11:27:18;;;;;;;5.50;2.30;;;24.40;55.10;;;;;;5038413;28;20111;-50
2022/10/28 11:29:44;;;;;;;5.22;2.53;;;24.40;55.00;;;;;;5038398;28;20036;-51
2022/10/28 11:32:15;;;;;;;5.05;1.95;;;24.40;54.90;;;;;;5055216;28;20482;-54
2022/10/28 11:34:57;;;;;;;4.45;2.15;;;24.40;54.70;;;;;;5038590;28;20025;-51
2022/10/28 11:38:19;;;;;;;5.82;2.40;;;24.40;54.60;;;;;;5038160;28;20049;-54
2022/10/28 11:41:04;;;;;;;5.55;1.88;;;24.40;54.50;;;;;;4996803;28;20042;-54
2022/10/28 11:43:42;;;;;;;;;;;24.50;54.50;;;;;;4997592;28;20050;-50
2022/10/28 11:46:10;;;;;;;5.93;2.40;;;24.40;54.40;;;;;;5024337;28;19963;-52
2022/10/28 11:48:48;;;;;;;7.03;2.40;;;24.40;54.30;;;;;;5049959;28;20091;-53
2022/10/28 11:51:44;;;;;;;6.10;2.05;;;24.50;54.20;;;;;;5057855;28;20441;-54
2022/10/28 11:54:32;;;;;;;6.15;2.25;;;24.50;54.10;;;;;;5048092;28;20480;-57
2022/10/28 11:57:03;;;;;;;6.80;2.40;;;24.50;54.10;;;;;;5047472;28;20096;-55
2022/10/28 11:59:32;;;;;;;5.43;2.10;;;24.50;54.00;;;;;;5047409;28;22511;-57
2022/10/28 12:02:16;;;;;;;4.15;1.73;;;24.50;54.00;;;;;;5054810;28;20456;-58
2022/10/28 12:05:09;;;;;;;4.28;2.60;;;24.60;54.00;;;;;;5055059;28;20412;-57
2022/10/28 12:07:51;;;;;;;5.82;1.95;;;24.60;53.90;;;;;;5054955;28;20091;-51
2022/10/28 12:10:41;;;;;;;8.23;2.47;;;24.60;53.80;;;;;;5058060;28;20040;-49
2022/10/28 12:13:20;;;;;;;5.60;2.38;;;24.60;53.70;;;;;;5055026;28;20025;-51
2022/10/28 12:15:57;;;;;;;4.93;2.22;;;24.70;53.60;;;;;;5062641;28;20051;-54
2022/10/28 12:18:34;;;;;;;4.63;2.25;;;24.70;53.50;;;;;;5049639;28;20091;-52
2022/10/28 12:21:30;;;;;;;6.55;2.70;;;24.80;53.50;;;;;;5037967;28;20041;-52
2022/10/28 12:23:58;;;;;;;5.40;2.40;;;24.80;53.40;;;;;;5047102;28;20037;-55
2022/10/28 12:26:37;;;;;;;6.63;1.90;;;24.80;53.40;;;;;;5044210;28;20479;-56
2022/10/28 12:29:13;;;;;;;6.40;2.03;;;24.80;53.50;;;;;;5046859;28;20035;-54
2022/10/28 12:31:44;;;;;;;5.07;2.15;;;24.90;53.60;;;;;;5044292;28;20033;-57
2022/10/28 12:34:17;;;;;;;4.80;2.15;;;24.90;53.70;;;;;;5044514;28;20399;-59
2022/10/28 12:36:57;;;;;;;4.85;2.10;;;24.90;53.70;;;;;;5045195;28;20037;-60
2022/10/28 12:39:46;;;;;;;5.25;2.17;;;24.90;53.60;;;;;;5043645;28;20825;-58
2022/10/28 12:42:44;;;;;;;5.25;2.17;;;25.00;53.60;;;;;;5045744;28;20039;-56
2022/10/28 12:45:16;;;;;;;5.78;2.58;;;25.00;53.50;;;;;;5043474;28;20037;-56
2022/10/28 12:48:05;;;;;;;5.82;2.15;;;25.10;53.50;;;;;;5041660;28;20076;-58
2022/10/28 12:50:40;;;;;;;6.65;2.83;;;25.10;53.40;;;;;;5046111;28;20032;-59
2022/10/28 12:53:30;;;;;;;4.82;2.00;;;25.20;53.30;;;;;;5051127;28;20029;-60
2022/10/28 12:56:01;;;;;;;4.88;2.05;;;25.20;53.10;;;;;;5052782;28;20524;-56
2022/10/28 12:58:35;;;;;;;5.78;2.03;;;25.20;53.00;;;;;;5054952;28;20039;-54
2022/10/28 13:01:15;;;;;;;4.68;2.15;;;25.30;53.00;;;;;;5052374;28;20029;-53
2022/10/28 13:03:41;;;;;;;5.75;2.45;;;25.30;52.80;;;;;;5048490;28;20061;-57
2022/10/28 13:06:33;;;;;;;7.25;2.50;;;25.30;52.70;;;;;;5050661;28;20055;-50
2022/10/28 13:09:56;;;;;;;4.28;2.13;;;25.40;52.60;;;;;;5038687;28;20053;-52
2022/10/28 13:13:00;;;;;;;5.95;2.30;;;25.40;52.50;;;;;;4979030;28;20412;-57